Time;durP1;ratioP1;P1;durP2;ratioP2;P2;SDS_P1;SDS_P2;PMS_P1;PMS_P2;Temp;Humidity;BMP_temperature;BMP_pressure;BME280_temperature;BME280_humidity;BME280_pressure;Samples;Min_cycle;Max_cycle;Signal;HPM_P1;HPM_P2
2022/06/16 00:02:03;;;;;;;4.32;1.77;;;18.40;70.10;;;;;;5009834;28;20065;-79
2022/06/16 00:04:30;;;;;;;5.47;2.07;;;18.40;70.20;;;;;;5010859;28;20116;-80
2022/06/16 00:06:56;;;;;;;7.88;2.10;;;18.40;69.80;;;;;;5010724;28;20030;-79
2022/06/16 00:09:22;;;;;;;7.40;1.90;;;18.40;70.10;;;;;;5011239;28;20406;-80
2022/06/16 00:11:48;;;;;;;7.13;2.10;;;18.50;70.10;;;;;;5010745;28;20030;-80
2022/06/16 00:14:14;;;;;;;7.10;2.20;;;18.30;70.00;;;;;;5010568;28;20464;-80
2022/06/16 00:16:40;;;;;;;4.20;2.08;;;18.20;70.20;;;;;;5010933;28;20034;-81
2022/06/16 00:19:06;;;;;;;6.10;2.22;;;18.30;70.20;;;;;;5010599;28;20057;-80
2022/06/16 00:21:31;;;;;;;5.07;2.20;;;18.30;70.60;;;;;;5011073;28;20045;-80
2022/06/16 00:23:57;;;;;;;5.05;2.05;;;18.40;70.40;;;;;;5010649;28;20034;-80
2022/06/16 00:26:25;;;;;;;5.18;1.83;;;18.40;70.20;;;;;;5010412;28;20032;-80
2022/06/16 00:28:51;;;;;;;5.25;1.83;;;18.40;70.60;;;;;;5010717;28;20441;-80
2022/06/16 00:31:20;;;;;;;4.40;2.40;;;18.30;70.50;;;;;;5010476;28;20160;-79
2022/06/16 00:33:46;;;;;;;5.97;2.00;;;18.30;70.40;;;;;;5011047;28;20037;-80
2022/06/16 00:36:13;;;;;;;5.05;1.90;;;18.30;70.50;;;;;;5010720;28;20030;-80
2022/06/16 00:38:39;;;;;;;4.00;1.95;;;18.30;70.40;;;;;;5012004;28;20029;-80
2022/06/16 00:41:11;;;;;;;5.70;2.03;;;18.20;70.90;;;;;;5014224;28;20042;-80
2022/06/16 00:43:37;;;;;;;4.25;2.17;;;18.20;70.80;;;;;;5014403;28;20040;-80
2022/06/16 00:46:15;;;;;;;9.07;2.17;;;18.20;71.10;;;;;;5014352;28;20460;-79
2022/06/16 00:48:46;;;;;;;5.03;2.05;;;18.20;70.90;;;;;;5015469;28;20080;-80
2022/06/16 00:51:35;;;;;;;4.05;1.70;;;18.20;71.20;;;;;;5014658;28;20091;-81
2022/06/16 00:54:51;;;;;;;12.10;2.47;;;18.10;71.40;;;;;;5013281;28;20049;-81
2022/06/16 00:57:21;;;;;;;3.83;1.90;;;18.10;71.40;;;;;;4978373;28;20503;-79
2022/06/16 00:59:48;;;;;;;4.22;1.75;;;18.10;71.60;;;;;;5009850;28;20364;-81
2022/06/16 01:02:15;;;;;;;4.05;1.98;;;18.10;71.80;;;;;;5014243;28;20112;-80
2022/06/16 01:04:53;;;;;;;7.18;2.10;;;18.10;71.80;;;;;;5014187;28;20060;-81
2022/06/16 01:07:26;;;;;;;7.88;2.30;;;18.10;71.70;;;;;;5012912;28;20117;-80
2022/06/16 01:09:54;;;;;;;6.45;2.15;;;18.00;71.90;;;;;;5014678;28;20022;-80
2022/06/16 01:15:33;;;;;;;6.45;2.30;;;17.90;72.30;;;;;;5014372;28;20494;-81
2022/06/16 01:18:33;;;;;;;4.72;2.45;;;17.70;73.00;;;;;;5014349;28;20037;-81
2022/06/16 01:21:18;;;;;;;3.72;2.20;;;17.50;73.50;;;;;;5014056;28;20041;-79
2022/06/16 01:24:16;;;;;;;10.52;2.72;;;17.40;73.90;;;;;;5014113;28;20038;-79
2022/06/16 01:27:00;;;;;;;7.82;2.17;;;17.30;74.00;;;;;;5013939;28;20350;-81
2022/06/16 01:30:03;;;;;;;5.85;2.20;;;17.40;74.00;;;;;;5013789;28;20353;-80
2022/06/16 01:32:41;;;;;;;7.40;1.92;;;17.40;73.70;;;;;;5013082;28;20050;-81
2022/06/16 01:35:50;;;;;;;5.40;2.20;;;17.40;73.80;;;;;;5013566;28;20048;-80
2022/06/16 01:38:27;;;;;;;4.93;1.98;;;17.50;74.00;;;;;;5027328;28;20029;-82
2022/06/16 01:41:19;;;;;;;3.72;1.98;;;17.50;73.90;;;;;;5031858;28;20479;-78
2022/06/16 01:43:58;;;;;;;7.78;2.30;;;17.50;74.20;;;;;;5030227;28;20176;-80
2022/06/16 01:46:29;;;;;;;4.13;2.25;;;17.60;73.70;;;;;;5031957;28;20033;-79
2022/06/16 01:49:02;;;;;;;4.43;2.00;;;17.60;74.10;;;;;;5031831;28;20033;-78
2022/06/16 01:51:34;;;;;;;4.90;2.22;;;17.50;74.30;;;;;;5031705;28;20360;-78
2022/06/16 01:54:23;;;;;;;6.13;2.05;;;17.50;74.20;;;;;;5031638;28;20057;-80
2022/06/16 01:57:07;;;;;;;6.47;2.05;;;17.50;74.40;;;;;;5031470;28;20475;-79
2022/06/16 01:59:39;;;;;;;3.35;1.77;;;17.40;75.00;;;;;;5031774;28;20455;-79
2022/06/16 02:02:10;;;;;;;6.20;2.55;;;17.40;75.40;;;;;;5031281;28;20061;-78
2022/06/16 02:04:41;;;;;;;3.05;1.98;;;17.40;75.40;;;;;;5031506;28;20490;-78
2022/06/16 02:07:14;;;;;;;5.10;2.35;;;17.30;75.70;;;;;;5031523;28;20418;-79
2022/06/16 02:09:43;;;;;;;6.57;2.53;;;17.20;75.70;;;;;;5032003;28;20451;-78
2022/06/16 02:12:55;;;;;;;4.10;2.10;;;17.10;76.30;;;;;;5031114;28;20113;-79
2022/06/16 02:15:09;;;;;;;3.40;1.80;;;17.00;76.50;;;;;;5031296;28;20043;-79
2022/06/16 02:17:34;;;;;;;11.38;2.30;;;16.90;76.90;;;;;;5031288;28;20121;-80
2022/06/16 02:20:01;;;;;;;6.05;2.38;;;17.00;77.30;;;;;;5031008;28;20128;-80
2022/06/16 02:22:26;;;;;;;8.93;2.20;;;16.90;77.40;;;;;;5031190;28;20298;-80
2022/06/16 02:24:52;;;;;;;3.92;2.13;;;16.90;77.30;;;;;;5031599;28;20013;-79
2022/06/16 02:27:18;;;;;;;6.82;2.17;;;17.10;77.30;;;;;;5031312;28;20083;-78
2022/06/16 02:29:44;;;;;;;6.80;2.20;;;17.00;77.40;;;;;;5030384;28;20091;-80
2022/06/16 02:32:24;;;;;;;12.35;2.60;;;16.90;77.70;;;;;;4990882;28;1162574;-79
2022/06/16 02:35:11;;;;;;;5.90;2.53;;;17.00;77.90;;;;;;5032188;28;20033;-79
2022/06/16 02:37:58;;;;;;;8.95;2.50;;;16.90;78.00;;;;;;5032072;28;20479;-78
2022/06/16 02:40:49;;;;;;;10.05;2.15;;;16.90;78.50;;;;;;5031729;28;20047;-80
2022/06/16 02:43:31;;;;;;;5.18;2.13;;;16.80;78.80;;;;;;5032098;28;20035;-78
2022/06/16 02:45:57;;;;;;;4.90;2.40;;;16.90;78.80;;;;;;5030874;28;20022;-78
2022/06/16 02:49:07;;;;;;;4.82;2.05;;;17.00;79.00;;;;;;5031148;28;20029;-78
2022/06/16 02:51:56;;;;;;;6.22;2.30;;;17.00;78.80;;;;;;4993324;28;20045;-79
2022/06/16 02:54:40;;;;;;;4.40;2.22;;;16.90;79.30;;;;;;4993119;28;20534;-79
2022/06/16 02:57:29;;;;;;;4.47;2.42;;;16.80;79.50;;;;;;5025792;28;20542;-78
2022/06/16 03:00:07;;;;;;;10.20;1.95;;;16.80;79.50;;;;;;5031810;28;20025;-78
2022/06/16 03:02:36;;;;;;;6.43;2.15;;;16.90;80.00;;;;;;5031267;28;20030;-78
2022/06/16 03:05:04;;;;;;;3.63;2.00;;;16.90;79.90;;;;;;5031442;28;20095;-78
2022/06/16 03:07:31;;;;;;;5.15;2.10;;;17.00;80.00;;;;;;5030213;28;20060;-78
2022/06/16 03:09:57;;;;;;;7.57;2.47;;;17.00;80.60;;;;;;5031244;28;20423;-78
2022/06/16 03:12:23;;;;;;;6.30;2.75;;;17.00;80.20;;;;;;5031867;28;20049;-78
2022/06/16 03:14:48;;;;;;;4.60;2.40;;;17.10;80.30;;;;;;5031251;28;20030;-79
2022/06/16 03:17:15;;;;;;;7.63;2.47;;;17.10;80.10;;;;;;5030251;28;20048;-78
2022/06/16 03:19:41;;;;;;;9.18;2.95;;;17.10;80.50;;;;;;5031521;28;20041;-79
2022/06/16 03:22:07;;;;;;;4.40;2.40;;;17.00;80.60;;;;;;5031205;28;20061;-78
2022/06/16 03:24:33;;;;;;;6.47;2.42;;;17.00;80.90;;;;;;5031594;28;20025;-78
2022/06/16 03:26:59;;;;;;;9.43;2.85;;;16.90;81.10;;;;;;5031101;28;20454;-77
2022/06/16 03:29:25;;;;;;;4.90;2.25;;;16.80;81.30;;;;;;5031251;28;20037;-78
2022/06/16 03:31:52;;;;;;;5.65;2.33;;;16.80;81.60;;;;;;5030902;28;20033;-79
2022/06/16 03:34:18;;;;;;;6.47;2.40;;;16.80;81.80;;;;;;5031100;28;20041;-79
2022/06/16 03:36:44;;;;;;;8.40;2.60;;;16.80;82.20;;;;;;5031429;28;20041;-78
2022/06/16 03:39:10;;;;;;;7.95;2.80;;;16.70;82.40;;;;;;5029608;28;20458;-77
2022/06/16 03:41:36;;;;;;;7.30;2.30;;;16.70;82.40;;;;;;5030323;28;20034;-78
2022/06/16 03:44:02;;;;;;;8.98;2.60;;;16.60;83.00;;;;;;5030660;28;20113;-77
2022/06/16 03:46:27;;;;;;;8.93;2.85;;;16.50;83.50;;;;;;5030514;28;20439;-77
2022/06/16 03:48:53;;;;;;;6.32;2.63;;;16.40;84.10;;;;;;5030841;28;20028;-78
2022/06/16 03:51:19;;;;;;;5.53;2.35;;;16.40;84.50;;;;;;5030810;28;20048;-79
2022/06/16 03:53:46;;;;;;;10.73;3.15;;;16.30;84.90;;;;;;5030422;28;20037;-78
2022/06/16 03:56:13;;;;;;;7.30;3.42;;;16.40;85.00;;;;;;5030382;28;20041;-80
2022/06/16 03:58:40;;;;;;;7.13;3.00;;;16.50;84.60;;;;;;5029315;28;20037;-79
2022/06/16 04:01:12;;;;;;;7.13;2.63;;;16.60;84.60;;;;;;5029934;28;20249;-76
2022/06/16 04:06:21;;;;;;;11.07;2.80;;;16.70;84.30;;;;;;5030642;28;20039;-77
2022/06/16 04:08:47;;;;;;;5.15;2.70;;;16.70;84.60;;;;;;5030076;28;20116;-77
2022/06/16 04:11:28;;;;;;;8.70;2.85;;;16.80;84.50;;;;;;5029882;28;20454;-77
2022/06/16 04:14:09;;;;;;;9.13;3.40;;;16.70;85.10;;;;;;5029890;28;20748;-77
2022/06/16 04:16:42;;;;;;;11.02;2.92;;;16.80;84.90;;;;;;5030149;28;20092;-77
2022/06/16 04:19:11;;;;;;;5.28;2.58;;;16.80;84.90;;;;;;5029950;28;20139;-78
2022/06/16 04:21:38;;;;;;;6.90;2.53;;;16.80;85.30;;;;;;5030470;28;20026;-78
2022/06/16 04:24:04;;;;;;;5.22;2.30;;;16.90;85.00;;;;;;5030055;28;20025;-77
2022/06/16 04:26:29;;;;;;;6.55;2.38;;;17.00;85.00;;;;;;5030056;28;20037;-77
2022/06/16 04:28:55;;;;;;;5.63;2.22;;;16.90;85.10;;;;;;5029992;28;20426;-77
2022/06/16 04:31:21;;;;;;;4.93;2.50;;;16.90;85.20;;;;;;5029821;28;20049;-78
2022/06/16 04:33:47;;;;;;;4.43;2.10;;;16.90;85.70;;;;;;5030380;28;20090;-77
2022/06/16 04:36:14;;;;;;;7.30;2.20;;;16.90;85.50;;;;;;5030101;28;20080;-79
2022/06/16 04:38:40;;;;;;;9.98;3.40;;;17.00;86.00;;;;;;5030189;28;20099;-78
2022/06/16 04:41:16;;;;;;;6.78;2.88;;;17.00;85.30;;;;;;5029859;28;20463;-77
2022/06/16 04:43:42;;;;;;;8.05;2.75;;;17.10;85.20;;;;;;5029876;28;20034;-78
2022/06/16 04:46:15;;;;;;;14.63;3.55;;;17.10;85.20;;;;;;5029694;28;20173;-78
2022/06/16 04:48:41;;;;;;;6.15;2.85;;;17.00;85.30;;;;;;5030259;28;20039;-77
2022/06/16 04:51:15;;;;;;;7.40;3.00;;;17.00;86.20;;;;;;5028584;28;20455;-77
2022/06/16 04:53:40;;;;;;;7.40;2.78;;;17.10;85.60;;;;;;5029521;28;20108;-76
2022/06/16 04:56:13;;;;;;;7.25;2.78;;;17.10;85.80;;;;;;5029504;28;20128;-78
2022/06/16 04:58:38;;;;;;;6.43;2.92;;;17.00;86.20;;;;;;5029913;28;20025;-78
2022/06/16 05:01:11;;;;;;;5.68;3.00;;;17.00;86.40;;;;;;5029490;28;20128;-77
2022/06/16 05:03:36;;;;;;;8.05;3.08;;;16.90;86.60;;;;;;5029898;28;20075;-77
2022/06/16 05:06:02;;;;;;;7.05;3.10;;;16.80;87.20;;;;;;5029635;28;20045;-78
2022/06/16 05:08:28;;;;;;;11.77;3.40;;;16.90;87.30;;;;;;5028363;28;20389;-77
2022/06/16 05:10:55;;;;;;;15.68;3.50;;;17.00;87.30;;;;;;5029493;28;20041;-79
2022/06/16 05:13:21;;;;;;;8.03;3.87;;;16.80;87.80;;;;;;5029545;28;20030;-77
2022/06/16 05:15:47;;;;;;;6.55;3.08;;;16.80;87.60;;;;;;5029814;28;20333;-78
2022/06/16 05:18:14;;;;;;;10.82;3.28;;;16.80;88.30;;;;;;5028464;28;20033;-78
2022/06/16 05:20:41;;;;;;;7.47;3.13;;;16.80;88.10;;;;;;5029613;28;20435;-78
2022/06/16 05:23:09;;;;;;;11.57;3.58;;;16.80;88.30;;;;;;5029539;28;20130;-78
2022/06/16 05:25:35;;;;;;;10.88;4.10;;;17.10;88.00;;;;;;5032531;28;20048;-79
2022/06/16 05:28:00;;;;;;;7.82;3.35;;;17.10;88.10;;;;;;5032996;28;20030;-77
2022/06/16 05:30:26;;;;;;;8.63;3.25;;;16.90;88.30;;;;;;5033682;28;20348;-76
2022/06/16 05:32:52;;;;;;;8.80;3.15;;;16.90;88.70;;;;;;5033225;28;20045;-77
2022/06/16 05:35:17;;;;;;;10.38;3.40;;;16.90;88.60;;;;;;5033355;28;20107;-77
2022/06/16 05:37:43;;;;;;;10.57;3.10;;;17.10;90.00;;;;;;5032807;28;20337;-78
2022/06/16 05:40:09;;;;;;;8.65;3.20;;;17.10;88.80;;;;;;5032381;28;20494;-77
2022/06/16 05:42:35;;;;;;;8.23;2.50;;;17.00;89.20;;;;;;5033095;28;20041;-79
2022/06/16 05:45:00;;;;;;;13.05;3.60;;;17.10;89.40;;;;;;5032726;28;20025;-78
2022/06/16 05:47:26;;;;;;;9.57;3.00;;;17.20;89.20;;;;;;5032673;28;20109;-80
2022/06/16 05:49:52;;;;;;;6.30;2.80;;;17.20;89.00;;;;;;5032519;28;20029;-77
2022/06/16 05:52:20;;;;;;;5.82;3.05;;;17.20;89.30;;;;;;5032555;28;20021;-77
2022/06/16 05:54:47;;;;;;;5.32;3.35;;;17.10;89.50;;;;;;5031878;28;20264;-78
2022/06/16 05:57:14;;;;;;;8.73;3.00;;;17.20;89.50;;;;;;5031323;28;20025;-77
2022/06/16 05:59:41;;;;;;;8.82;3.25;;;17.30;89.90;;;;;;5032503;28;20047;-77
2022/06/16 06:02:18;;;;;;;11.32;3.28;;;17.40;89.20;;;;;;5032237;28;20044;-80
2022/06/16 06:04:44;;;;;;;7.40;3.10;;;17.50;89.60;;;;;;5032627;28;20690;-80
2022/06/16 06:07:10;;;;;;;6.75;2.92;;;17.60;88.90;;;;;;5033065;28;20099;-83
2022/06/16 06:18:19;;;;;;;5.63;2.72;;;17.90;89.10;;;;;;5031905;28;20057;-77
2022/06/16 06:20:46;;;;;;;8.48;2.67;;;18.00;88.60;;;;;;5031990;28;20083;-76
2022/06/16 06:23:12;;;;;;;6.10;2.65;;;18.00;88.50;;;;;;5032035;28;20048;-75
2022/06/16 06:25:38;;;;;;;11.98;2.80;;;18.20;88.40;;;;;;5031825;28;20408;-76
2022/06/16 06:28:04;;;;;;;7.32;2.45;;;18.30;89.10;;;;;;5031748;28;20030;-74
2022/06/16 06:30:31;;;;;;;4.85;3.05;;;18.40;88.20;;;;;;5031199;28;20101;-74
2022/06/16 06:32:58;;;;;;;6.82;3.10;;;18.50;88.20;;;;;;5031504;28;20490;-75
2022/06/16 06:35:24;;;;;;;9.02;3.45;;;18.60;87.60;;;;;;5030888;28;20130;-78
2022/06/16 06:37:51;;;;;;;4.22;2.45;;;18.50;87.70;;;;;;5031525;28;20396;-74
2022/06/16 06:40:30;;;;;;;8.48;2.88;;;18.70;87.10;;;;;;5031570;28;20116;-74
2022/06/16 06:42:56;;;;;;;5.50;2.55;;;18.80;86.60;;;;;;5031340;28;20029;-73
2022/06/16 06:45:22;;;;;;;11.73;2.75;;;18.90;86.30;;;;;;5031982;28;20099;-75
2022/06/16 06:47:48;;;;;;;6.70;2.53;;;19.00;86.10;;;;;;5031677;28;20029;-74
2022/06/16 06:50:29;;;;;;;6.10;2.28;;;19.10;85.70;;;;;;5030821;28;20120;-74
2022/06/16 06:52:55;;;;;;;9.55;2.95;;;19.10;85.00;;;;;;5031995;28;20029;-75
2022/06/16 06:55:22;;;;;;;12.35;3.58;;;19.10;85.00;;;;;;5030815;28;20408;-72
2022/06/16 06:57:51;;;;;;;4.50;2.30;;;19.10;85.30;;;;;;5031699;28;20018;-72
2022/06/16 07:00:18;;;;;;;5.22;2.40;;;19.20;84.60;;;;;;5031128;28;20037;-73
2022/06/16 07:02:44;;;;;;;7.60;2.55;;;19.30;84.20;;;;;;5031253;28;20034;-75
2022/06/16 07:05:10;;;;;;;7.65;2.03;;;19.40;83.30;;;;;;5031042;28;20440;-72
2022/06/16 07:07:36;;;;;;;5.68;2.45;;;19.50;83.00;;;;;;5031130;28;20459;-72
2022/06/16 07:10:05;;;;;;;5.70;2.30;;;19.40;83.30;;;;;;5029718;28;20057;-76
2022/06/16 07:12:31;;;;;;;9.95;3.38;;;19.60;83.40;;;;;;5031537;28;20435;-77
2022/06/16 07:14:57;;;;;;;6.05;3.10;;;19.70;83.10;;;;;;5031235;28;20041;-76
2022/06/16 07:17:23;;;;;;;7.28;2.47;;;19.90;82.80;;;;;;5031085;28;20040;-73
2022/06/16 07:19:49;;;;;;;5.55;2.40;;;19.90;82.80;;;;;;5031412;28;20475;-74
2022/06/16 07:22:15;;;;;;;4.30;2.40;;;19.90;82.90;;;;;;5029625;28;20305;-73
2022/06/16 07:24:41;;;;;;;5.95;2.50;;;20.10;81.30;;;;;;5030305;28;20113;-73
2022/06/16 07:27:08;;;;;;;8.98;2.38;;;20.10;80.90;;;;;;5029637;28;20140;-73
2022/06/16 07:29:34;;;;;;;7.70;2.22;;;20.30;80.10;;;;;;5030698;28;20037;-75
2022/06/16 07:32:00;;;;;;;4.53;1.90;;;20.40;78.80;;;;;;5029539;28;20187;-73
2022/06/16 07:34:27;;;;;;;5.60;2.03;;;20.40;77.60;;;;;;5030146;28;20052;-73
2022/06/16 07:36:53;;;;;;;6.38;2.25;;;20.50;78.00;;;;;;5030982;28;20452;-72
2022/06/16 07:39:18;;;;;;;6.63;2.45;;;20.60;79.10;;;;;;5030377;28;20121;-76
2022/06/16 07:41:44;;;;;;;7.82;2.40;;;20.70;78.60;;;;;;5030573;28;20033;-73
2022/06/16 07:44:12;;;;;;;3.13;1.77;;;20.70;78.70;;;;;;5030712;28;20040;-72
2022/06/16 07:46:40;;;;;;;6.18;2.35;;;20.70;79.10;;;;;;5030323;28;20106;-71
2022/06/16 07:49:07;;;;;;;5.75;2.03;;;20.90;77.80;;;;;;5030383;28;20468;-72
2022/06/16 07:51:34;;;;;;;5.07;1.87;;;20.90;77.30;;;;;;5030680;28;20033;-73
2022/06/16 07:54:00;;;;;;;4.43;2.40;;;21.00;77.30;;;;;;5030401;28;20033;-71
2022/06/16 07:56:26;;;;;;;8.95;2.60;;;21.00;77.40;;;;;;5030284;28;20032;-73
2022/06/16 07:58:51;;;;;;;5.80;2.20;;;21.10;76.70;;;;;;5030200;28;20037;-72
2022/06/16 08:01:17;;;;;;;6.80;2.40;;;20.90;77.60;;;;;;5029978;28;20125;-74
2022/06/16 08:03:43;;;;;;;5.40;2.05;;;21.20;76.80;;;;;;5030671;28;20507;-73
2022/06/16 08:06:17;;;;;;;9.13;2.17;;;21.50;76.40;;;;;;5030202;28;20480;-73
2022/06/16 08:08:43;;;;;;;8.27;2.13;;;21.90;74.60;;;;;;5028765;28;20053;-72
2022/06/16 08:14:00;;;;;;;6.63;1.90;;;23.00;73.10;;;;;;5029923;28;20040;-73
2022/06/16 08:16:30;;;;;;;7.85;2.33;;;23.00;72.60;;;;;;5028739;28;20022;-74
2022/06/16 08:18:56;;;;;;;7.47;2.17;;;22.80;71.80;;;;;;5029852;28;20025;-75
2022/06/16 08:21:22;;;;;;;9.32;1.70;;;23.00;73.40;;;;;;5030295;28;20033;-74
2022/06/16 08:23:48;;;;;;;7.90;2.28;;;23.20;70.80;;;;;;5028817;28;20036;-74
2022/06/16 08:26:17;;;;;;;6.10;1.90;;;23.80;70.90;;;;;;5028501;28;20038;-73
2022/06/16 08:28:43;;;;;;;2.97;1.63;;;24.30;68.40;;;;;;5029776;28;20388;-72
2022/06/16 08:31:17;;;;;;;7.03;1.77;;;25.20;68.10;;;;;;5029721;28;20029;-72
2022/06/16 08:33:43;;;;;;;4.85;2.00;;;25.90;65.30;;;;;;5030108;28;20434;-74
2022/06/16 08:36:21;;;;;;;6.70;1.67;;;26.10;64.10;;;;;;5029709;28;20471;-73
2022/06/16 08:38:48;;;;;;;4.25;2.08;;;26.70;63.20;;;;;;5029810;28;20430;-77
2022/06/16 08:41:48;;;;;;;6.32;2.17;;;26.90;61.70;;;;;;5029639;28;20041;-72
2022/06/16 08:44:26;;;;;;;8.77;5.30;;;27.60;61.00;;;;;;5025758;28;20107;-75
2022/06/16 08:46:51;;;;;;;;;;;27.40;59.40;;;;;;5030106;28;20080;-74
2022/06/16 08:49:30;;;;;;;4.80;1.88;;;28.00;58.20;;;;;;5029765;28;19941;-77
2022/06/16 08:52:29;;;;;;;5.65;2.00;;;28.60;56.80;;;;;;5028663;28;20448;-77
2022/06/16 08:55:00;;;;;;;7.90;1.98;;;28.70;55.70;;;;;;5030237;28;20021;-75
2022/06/16 08:57:52;;;;;;;7.60;2.00;;;29.60;56.10;;;;;;5029680;28;20038;-75
2022/06/16 09:00:26;;;;;;;6.53;2.28;;;29.40;54.00;;;;;;5032269;28;20316;-73
2022/06/16 09:03:01;;;;;;;6.75;2.72;;;28.80;55.00;;;;;;5034044;28;20033;-76
2022/06/16 09:05:55;;;;;;;6.25;1.67;;;29.00;54.00;;;;;;5034679;28;20358;-75
2022/06/16 09:08:53;;;;;;;5.55;2.00;;;28.70;54.40;;;;;;5034260;28;20029;-74
2022/06/16 09:11:33;;;;;;;5.03;2.00;;;28.40;54.90;;;;;;5014311;28;20037;-75
2022/06/16 09:14:08;;;;;;;4.93;2.17;;;28.00;54.60;;;;;;5033656;28;20050;-74
2022/06/16 09:17:07;;;;;;;6.53;2.10;;;26.70;55.40;;;;;;5031994;28;20033;-74
2022/06/16 09:19:51;;;;;;;8.38;2.35;;;26.50;57.30;;;;;;5033369;28;20033;-74
2022/06/16 09:22:20;;;;;;;7.50;2.17;;;26.70;57.40;;;;;;5033441;28;20033;-73
2022/06/16 09:25:06;;;;;;;5.57;2.40;;;26.10;57.50;;;;;;5034170;28;20029;-72
2022/06/16 09:28:06;;;;;;;7.22;3.97;;;25.60;58.00;;;;;;5034323;28;20452;-71
2022/06/16 09:30:39;;;;;;;8.18;2.70;;;25.20;58.30;;;;;;5033585;28;20083;-71
2022/06/16 09:33:46;;;;;;;8.55;2.45;;;24.50;60.20;;;;;;5032960;28;20076;-73
2022/06/16 09:36:31;;;;;;;7.10;2.30;;;24.50;61.20;;;;;;5028156;28;20109;-74
2022/06/16 09:39:21;;;;;;;7.90;1.98;;;24.50;61.20;;;;;;5032204;28;20025;-73
2022/06/16 09:45:00;;;;;;;5.93;1.90;;;24.30;61.20;;;;;;5033470;28;20425;-71
2022/06/16 09:47:31;;;;;;;6.75;1.77;;;24.90;60.70;;;;;;5032787;28;20061;-74
2022/06/16 09:50:06;;;;;;;4.63;1.55;;;25.10;59.70;;;;;;5032648;28;20026;-73
2022/06/16 09:52:38;;;;;;;6.95;1.73;;;25.00;59.90;;;;;;5032743;28;20033;-74
2022/06/16 09:55:11;;;;;;;7.07;1.73;;;25.00;60.30;;;;;;5032674;28;20443;-73
2022/06/16 09:57:42;;;;;;;2.67;1.58;;;25.00;61.10;;;;;;5033121;28;20093;-73
2022/06/16 10:00:15;;;;;;;2.35;1.58;;;25.50;59.90;;;;;;5032921;28;20029;-73
2022/06/16 10:02:54;;;;;;;5.82;1.90;;;25.40;58.40;;;;;;5032929;28;20084;-74
2022/06/16 10:05:32;;;;;;;4.93;1.80;;;25.30;59.10;;;;;;5032429;28;20115;-74
2022/06/16 10:08:07;;;;;;;3.83;2.00;;;25.10;59.80;;;;;;5032580;28;20033;-74
2022/06/16 10:10:37;;;;;;;5.53;1.88;;;25.20;59.50;;;;;;5033016;28;20348;-76
2022/06/16 10:13:13;;;;;;;4.38;1.90;;;25.10;58.60;;;;;;5033659;28;20102;-75
2022/06/16 10:15:45;;;;;;;6.78;2.13;;;25.20;59.00;;;;;;5033280;28;20484;-75
2022/06/16 10:18:12;;;;;;;5.45;1.40;;;25.40;58.90;;;;;;5033449;28;20033;-75
2022/06/16 10:20:39;;;;;;;5.40;2.08;;;25.60;58.10;;;;;;5034915;28;20356;-77
2022/06/16 10:23:13;;;;;;;4.77;1.80;;;24.90;59.00;;;;;;5032711;28;20052;-76
2022/06/16 10:25:47;;;;;;;10.90;5.80;;;25.00;59.20;;;;;;5033333;28;20254;-76
2022/06/16 10:28:29;;;;;;;9.73;2.08;;;24.90;58.70;;;;;;5032361;28;20047;-75
2022/06/16 10:30:58;;;;;;;4.50;1.80;;;24.90;57.90;;;;;;5033762;28;20048;-75
2022/06/16 10:33:30;;;;;;;3.47;1.60;;;24.90;58.00;;;;;;5032739;28;20136;-76
2022/06/16 10:36:18;;;;;;;7.38;2.20;;;24.80;58.10;;;;;;5031203;28;20102;-75
2022/06/16 10:39:16;;;;;;;9.10;2.65;;;25.00;58.70;;;;;;5031287;28;20030;-79
2022/06/16 10:42:04;;;;;;;7.07;2.22;;;25.20;59.50;;;;;;5031541;28;20038;-72
2022/06/16 10:44:32;;;;;;;12.73;3.15;;;25.40;59.30;;;;;;5031633;28;20479;-71
2022/06/16 10:47:06;;;;;;;7.32;1.73;;;25.40;57.90;;;;;;5031880;28;20136;-72
2022/06/16 10:49:36;;;;;;;13.00;2.90;;;25.50;57.50;;;;;;5031997;28;20036;-72
2022/06/16 10:52:14;;;;;;;7.40;1.73;;;25.60;57.90;;;;;;5031758;28;20025;-69
2022/06/16 10:54:56;;;;;;;10.30;2.42;;;25.30;57.00;;;;;;5031734;28;20021;-71
2022/06/16 10:57:28;;;;;;;9.27;2.50;;;24.90;58.40;;;;;;5030533;28;20061;-77
2022/06/16 11:00:17;;;;;;;9.05;2.17;;;25.50;57.00;;;;;;5031704;28;20109;-76
2022/06/16 11:03:04;;;;;;;3.97;1.05;;;25.70;56.50;;;;;;5035940;28;20371;-74
2022/06/16 11:05:35;;;;;;;4.15;1.20;;;25.60;55.60;;;;;;5031416;28;20029;-73
2022/06/16 11:08:10;;;;;;;3.45;1.10;;;25.60;55.30;;;;;;5031334;28;20030;-75
2022/06/16 11:10:49;;;;;;;5.88;0.95;;;25.30;54.70;;;;;;5031065;28;20053;-76
2022/06/16 11:13:20;;;;;;;2.15;0.95;;;24.80;54.10;;;;;;5031528;28;20037;-77
2022/06/16 11:15:50;;;;;;;6.32;0.88;;;25.00;53.70;;;;;;5031991;28;20025;-77
2022/06/16 11:18:20;;;;;;;3.08;1.10;;;25.10;54.00;;;;;;5030211;28;20124;-76
2022/06/16 11:20:52;;;;;;;2.38;0.55;;;24.80;53.80;;;;;;5030068;28;20060;-77
2022/06/16 11:23:41;;;;;;;3.53;1.10;;;24.80;54.00;;;;;;5030698;28;20447;-78
2022/06/16 11:26:18;;;;;;;3.25;1.10;;;24.90;53.80;;;;;;5030890;28;20475;-75
2022/06/16 11:28:46;;;;;;;2.85;0.80;;;25.00;54.00;;;;;;5031037;28;20479;-77
2022/06/16 11:31:19;;;;;;;2.85;1.35;;;25.00;52.70;;;;;;5030802;28;20052;-76
2022/06/16 11:37:00;;;;;;;4.47;1.30;;;25.40;51.70;;;;;;5030935;28;20132;-78
2022/06/16 11:39:44;;;;;;;2.97;1.83;;;25.50;52.90;;;;;;5030932;28;20033;-73
2022/06/16 11:42:44;;;;;;;2.17;0.70;;;25.10;53.40;;;;;;5031559;28;20122;-74
2022/06/16 11:45:27;;;;;;;4.18;1.00;;;25.20;52.90;;;;;;5030465;28;20029;-73
2022/06/16 11:48:11;;;;;;;2.42;1.00;;;25.20;51.60;;;;;;5031693;28;20432;-73
2022/06/16 11:51:14;;;;;;;1.92;0.88;;;25.30;52.00;;;;;;5031473;28;20483;-75
2022/06/16 11:53:49;;;;;;;9.90;1.58;;;25.30;51.20;;;;;;5030814;28;20091;-75
2022/06/16 11:56:48;;;;;;;4.45;1.00;;;25.20;51.80;;;;;;5029648;28;20041;-74
2022/06/16 11:59:39;;;;;;;7.53;1.10;;;25.40;51.90;;;;;;5030353;28;20356;-75
2022/06/16 12:02:28;;;;;;;3.95;1.10;;;25.40;50.80;;;;;;5030582;28;20046;-74
2022/06/16 12:05:09;;;;;;;3.15;1.00;;;25.40;51.90;;;;;;5030336;28;20022;-74
2022/06/16 12:07:48;;;;;;;13.27;2.08;;;25.30;51.30;;;;;;5030156;28;20038;-75
2022/06/16 12:10:31;;;;;;;5.18;1.00;;;25.30;51.70;;;;;;5030474;28;20037;-75
2022/06/16 12:13:17;;;;;;;2.50;0.98;;;25.20;51.40;;;;;;5030583;28;20021;-75
2022/06/16 12:15:57;;;;;;;10.10;1.20;;;25.20;51.60;;;;;;5030901;28;20028;-75
2022/06/16 12:18:40;;;;;;;1.73;0.70;;;25.40;51.00;;;;;;5030697;28;20137;-74
2022/06/16 12:21:24;;;;;;;4.38;1.00;;;25.60;50.60;;;;;;5030940;28;20043;-75
2022/06/16 12:23:55;;;;;;;1.85;0.60;;;25.70;50.30;;;;;;5029899;28;20037;-75
2022/06/16 12:26:41;;;;;;;1.38;0.63;;;25.60;50.20;;;;;;5029504;28;20098;-74
2022/06/16 12:29:29;;;;;;;4.68;1.00;;;25.70;50.20;;;;;;5030639;28;20120;-74
2022/06/16 12:32:01;;;;;;;4.03;0.77;;;25.70;49.50;;;;;;5029987;28;20464;-74
2022/06/16 12:34:44;;;;;;;2.85;0.68;;;25.50;50.00;;;;;;5033201;28;20114;-73
2022/06/16 12:37:15;;;;;;;1.80;0.75;;;25.40;50.90;;;;;;5033858;28;20022;-77
2022/06/16 12:39:52;;;;;;;3.30;1.20;;;25.40;50.60;;;;;;5034427;28;20026;-74
2022/06/16 12:42:23;;;;;;;3.42;0.80;;;25.40;50.90;;;;;;5034025;28;20560;-74
2022/06/16 12:45:00;;;;;;;2.42;0.80;;;25.50;50.10;;;;;;5034521;28;20036;-75
2022/06/16 12:47:30;;;;;;;5.25;0.80;;;25.40;49.80;;;;;;5033944;28;20052;-74
2022/06/16 12:50:05;;;;;;;4.40;1.02;;;25.40;49.90;;;;;;5033930;28;20030;-73
2022/06/16 12:52:39;;;;;;;4.93;1.02;;;25.30;49.60;;;;;;5032714;28;20056;-73
2022/06/16 12:55:15;;;;;;;2.60;0.63;;;25.20;50.30;;;;;;5033793;28;20037;-74
2022/06/16 12:57:45;;;;;;;2.60;1.05;;;25.20;51.00;;;;;;5034262;28;20045;-73
2022/06/16 13:00:18;;;;;;;3.13;0.82;;;25.30;50.30;;;;;;5033928;28;20025;-74
2022/06/16 13:03:00;;;;;;;4.97;1.05;;;25.30;50.20;;;;;;5033650;28;20559;-75
2022/06/16 13:05:26;;;;;;;2.33;0.73;;;25.40;50.70;;;;;;5034188;28;20109;-75
2022/06/16 13:07:54;;;;;;;2.53;0.88;;;25.50;49.90;;;;;;5034410;28;20030;-74
2022/06/16 13:10:22;;;;;;;2.30;0.55;;;25.40;50.30;;;;;;5033401;28;20029;-74
2022/06/16 13:12:58;;;;;;;4.63;0.70;;;25.40;49.90;;;;;;5032843;28;20346;-77
2022/06/16 13:15:32;;;;;;;1.63;0.80;;;25.20;48.80;;;;;;5032808;28;20033;-74
2022/06/16 13:18:08;;;;;;;1.67;0.70;;;25.30;49.20;;;;;;5033598;28;20029;-72
2022/06/16 13:20:35;;;;;;;1.95;0.93;;;25.40;49.20;;;;;;5033210;28;20037;-74
2022/06/16 13:23:15;;;;;;;1.33;0.50;;;25.20;50.50;;;;;;5033021;28;20088;-75
2022/06/16 13:25:46;;;;;;;2.10;0.68;;;25.30;49.10;;;;;;5033065;28;20387;-74
2022/06/16 13:28:42;;;;;;;1.85;0.73;;;25.30;49.30;;;;;;5033328;28;20087;-74
2022/06/16 13:31:24;;;;;;;3.20;0.95;;;25.30;49.30;;;;;;5029690;28;20099;-73
2022/06/16 13:34:11;;;;;;;2.47;0.70;;;25.50;48.70;;;;;;5033371;28;20526;-78
2022/06/16 13:36:39;;;;;;;;;;;25.50;47.70;;;;;;5032357;28;20037;-74
2022/06/16 13:39:08;;;;;;;3.63;0.90;;;25.40;48.00;;;;;;5032712;28;19995;-73
2022/06/16 13:41:41;;;;;;;1.60;0.52;;;25.50;48.20;;;;;;5032402;28;20045;-74